sensor_id;sensor_type;location;lat;lon;timestamp;P1;durP1;ratioP1;P2;durP2;ratioP2
6372;SDS011;3219;51.362;7.074;2023-02-27T00:01:38;5.80;;;3.95;;
6372;SDS011;3219;51.362;7.074;2023-02-27T00:04:05;6.90;;;3.90;;
6372;SDS011;3219;51.362;7.074;2023-02-27T00:06:32;6.20;;;3.60;;
6372;SDS011;3219;51.362;7.074;2023-02-27T00:09:02;7.07;;;3.40;;
6372;SDS011;3219;51.362;7.074;2023-02-27T00:11:29;7.47;;;4.22;;
6372;SDS011;3219;51.362;7.074;2023-02-27T00:13:56;6.53;;;3.85;;
6372;SDS011;3219;51.362;7.074;2023-02-27T00:16:23;6.00;;;3.78;;
6372;SDS011;3219;51.362;7.074;2023-02-27T00:18:50;6.68;;;3.85;;
6372;SDS011;3219;51.362;7.074;2023-02-27T00:21:17;6.93;;;4.43;;
6372;SDS011;3219;51.362;7.074;2023-02-27T00:23:44;5.13;;;3.58;;
6372;SDS011;3219;51.362;7.074;2023-02-27T00:26:12;7.05;;;3.65;;
6372;SDS011;3219;51.362;7.074;2023-02-27T00:28:39;6.07;;;3.75;;
6372;SDS011;3219;51.362;7.074;2023-02-27T00:31:06;8.35;;;4.15;;
6372;SDS011;3219;51.362;7.074;2023-02-27T00:33:34;5.47;;;3.70;;
6372;SDS011;3219;51.362;7.074;2023-02-27T00:36:00;5.72;;;3.78;;
6372;SDS011;3219;51.362;7.074;2023-02-27T00:38:28;5.00;;;3.83;;
6372;SDS011;3219;51.362;7.074;2023-02-27T00:40:55;5.32;;;3.78;;
6372;SDS011;3219;51.362;7.074;2023-02-27T00:43:23;8.68;;;4.68;;
6372;SDS011;3219;51.362;7.074;2023-02-27T00:45:50;7.22;;;4.68;;
6372;SDS011;3219;51.362;7.074;2023-02-27T00:48:17;7.63;;;4.35;;
6372;SDS011;3219;51.362;7.074;2023-02-27T00:50:44;6.40;;;4.45;;
6372;SDS011;3219;51.362;7.074;2023-02-27T00:53:11;7.05;;;4.22;;
6372;SDS011;3219;51.362;7.074;2023-02-27T00:55:38;5.40;;;3.55;;
6372;SDS011;3219;51.362;7.074;2023-02-27T00:58:05;5.82;;;4.18;;
6372;SDS011;3219;51.362;7.074;2023-02-27T01:00:33;6.18;;;4.30;;
6372;SDS011;3219;51.362;7.074;2023-02-27T01:03:00;7.75;;;4.82;;
6372;SDS011;3219;51.362;7.074;2023-02-27T01:05:26;6.82;;;4.53;;
6372;SDS011;3219;51.362;7.074;2023-02-27T01:07:53;11.38;;;4.75;;
6372;SDS011;3219;51.362;7.074;2023-02-27T01:10:20;6.90;;;4.75;;
6372;SDS011;3219;51.362;7.074;2023-02-27T01:12:47;6.00;;;4.47;;
6372;SDS011;3219;51.362;7.074;2023-02-27T01:15:14;6.20;;;3.95;;
6372;SDS011;3219;51.362;7.074;2023-02-27T01:17:42;6.57;;;4.55;;
6372;SDS011;3219;51.362;7.074;2023-02-27T01:20:10;6.65;;;4.32;;
6372;SDS011;3219;51.362;7.074;2023-02-27T01:22:38;9.32;;;4.53;;
6372;SDS011;3219;51.362;7.074;2023-02-27T01:25:04;6.30;;;4.28;;
6372;SDS011;3219;51.362;7.074;2023-02-27T01:27:32;6.22;;;4.45;;
6372;SDS011;3219;51.362;7.074;2023-02-27T01:29:59;8.82;;;5.20;;
6372;SDS011;3219;51.362;7.074;2023-02-27T01:32:25;6.57;;;4.68;;
6372;SDS011;3219;51.362;7.074;2023-02-27T01:34:53;7.65;;;5.28;;
6372;SDS011;3219;51.362;7.074;2023-02-27T01:37:20;7.05;;;4.30;;
6372;SDS011;3219;51.362;7.074;2023-02-27T01:39:47;8.32;;;5.05;;
6372;SDS011;3219;51.362;7.074;2023-02-27T01:42:16;7.43;;;4.68;;
6372;SDS011;3219;51.362;7.074;2023-02-27T01:45:01;8.25;;;4.93;;
6372;SDS011;3219;51.362;7.074;2023-02-27T01:47:42;8.10;;;5.40;;
6372;SDS011;3219;51.362;7.074;2023-02-27T01:50:12;7.53;;;4.97;;
6372;SDS011;3219;51.362;7.074;2023-02-27T01:52:40;9.15;;;5.28;;
6372;SDS011;3219;51.362;7.074;2023-02-27T01:55:10;8.65;;;4.90;;
6372;SDS011;3219;51.362;7.074;2023-02-27T01:57:39;9.55;;;5.32;;
6372;SDS011;3219;51.362;7.074;2023-02-27T02:00:09;6.32;;;4.03;;
6372;SDS011;3219;51.362;7.074;2023-02-27T02:02:37;8.20;;;4.18;;
6372;SDS011;3219;51.362;7.074;2023-02-27T02:05:07;6.53;;;4.47;;
6372;SDS011;3219;51.362;7.074;2023-02-27T02:07:36;9.85;;;4.60;;
6372;SDS011;3219;51.362;7.074;2023-02-27T02:10:05;7.45;;;4.45;;
6372;SDS011;3219;51.362;7.074;2023-02-27T02:12:33;7.70;;;4.47;;
6372;SDS011;3219;51.362;7.074;2023-02-27T02:15:02;7.35;;;4.72;;
6372;SDS011;3219;51.362;7.074;2023-02-27T02:17:32;6.65;;;4.85;;
6372;SDS011;3219;51.362;7.074;2023-02-27T02:25:53;8.45;;;4.80;;
6372;SDS011;3219;51.362;7.074;2023-02-27T02:31:53;7.38;;;4.75;;
6372;SDS011;3219;51.362;7.074;2023-02-27T02:37:52;8.35;;;4.50;;
6372;SDS011;3219;51.362;7.074;2023-02-27T02:40:44;8.80;;;5.05;;
6372;SDS011;3219;51.362;7.074;2023-02-27T02:43:17;9.20;;;4.60;;
6372;SDS011;3219;51.362;7.074;2023-02-27T02:45:50;9.10;;;4.53;;
6372;SDS011;3219;51.362;7.074;2023-02-27T02:48:26;10.10;;;4.50;;
6372;SDS011;3219;51.362;7.074;2023-02-27T02:51:00;9.98;;;5.00;;
6372;SDS011;3219;51.362;7.074;2023-02-27T02:53:31;10.82;;;5.30;;
6372;SDS011;3219;51.362;7.074;2023-02-27T02:56:09;9.77;;;5.18;;
6372;SDS011;3219;51.362;7.074;2023-02-27T02:58:42;8.23;;;4.70;;
6372;SDS011;3219;51.362;7.074;2023-02-27T03:01:13;8.18;;;4.55;;
6372;SDS011;3219;51.362;7.074;2023-02-27T03:03:42;8.02;;;4.82;;
6372;SDS011;3219;51.362;7.074;2023-02-27T03:08:45;8.00;;;4.35;;
6372;SDS011;3219;51.362;7.074;2023-02-27T03:11:18;8.10;;;5.07;;
6372;SDS011;3219;51.362;7.074;2023-02-27T03:13:48;10.40;;;5.03;;
6372;SDS011;3219;51.362;7.074;2023-02-27T03:16:20;8.35;;;4.75;;
6372;SDS011;3219;51.362;7.074;2023-02-27T03:18:53;9.75;;;4.85;;
6372;SDS011;3219;51.362;7.074;2023-02-27T03:21:24;8.25;;;5.25;;
6372;SDS011;3219;51.362;7.074;2023-02-27T03:23:55;7.18;;;5.60;;
6372;SDS011;3219;51.362;7.074;2023-02-27T03:26:28;9.85;;;5.55;;
6372;SDS011;3219;51.362;7.074;2023-02-27T03:28:59;8.15;;;5.32;;
6372;SDS011;3219;51.362;7.074;2023-02-27T03:31:30;7.72;;;5.13;;
6372;SDS011;3219;51.362;7.074;2023-02-27T03:34:05;10.95;;;5.85;;
6372;SDS011;3219;51.362;7.074;2023-02-27T03:36:40;8.07;;;5.40;;
6372;SDS011;3219;51.362;7.074;2023-02-27T03:39:15;9.32;;;5.43;;
6372;SDS011;3219;51.362;7.074;2023-02-27T03:41:55;10.35;;;5.45;;
6372;SDS011;3219;51.362;7.074;2023-02-27T03:44:28;11.05;;;5.50;;
6372;SDS011;3219;51.362;7.074;2023-02-27T03:47:00;9.63;;;5.53;;
6372;SDS011;3219;51.362;7.074;2023-02-27T03:49:27;8.38;;;5.82;;
6372;SDS011;3219;51.362;7.074;2023-02-27T03:51:54;9.32;;;5.25;;
6372;SDS011;3219;51.362;7.074;2023-02-27T03:54:21;8.88;;;5.32;;
6372;SDS011;3219;51.362;7.074;2023-02-27T03:56:53;8.88;;;5.85;;
6372;SDS011;3219;51.362;7.074;2023-02-27T03:59:25;7.28;;;5.45;;
6372;SDS011;3219;51.362;7.074;2023-02-27T04:01:52;8.70;;;5.70;;
6372;SDS011;3219;51.362;7.074;2023-02-27T04:04:21;10.90;;;5.55;;
6372;SDS011;3219;51.362;7.074;2023-02-27T04:06:50;9.55;;;5.63;;
6372;SDS011;3219;51.362;7.074;2023-02-27T04:09:42;9.23;;;6.25;;
6372;SDS011;3219;51.362;7.074;2023-02-27T04:12:29;7.93;;;5.20;;
6372;SDS011;3219;51.362;7.074;2023-02-27T04:15:12;8.45;;;5.82;;
6372;SDS011;3219;51.362;7.074;2023-02-27T04:17:49;8.32;;;5.20;;
6372;SDS011;3219;51.362;7.074;2023-02-27T04:20:31;7.82;;;5.00;;
6372;SDS011;3219;51.362;7.074;2023-02-27T04:23:06;7.60;;;5.55;;
6372;SDS011;3219;51.362;7.074;2023-02-27T04:25:43;9.93;;;5.40;;
6372;SDS011;3219;51.362;7.074;2023-02-27T04:28:18;11.85;;;5.57;;
6372;SDS011;3219;51.362;7.074;2023-02-27T04:30:57;11.10;;;4.82;;
6372;SDS011;3219;51.362;7.074;2023-02-27T04:33:32;6.95;;;4.57;;
6372;SDS011;3219;51.362;7.074;2023-02-27T04:36:07;8.18;;;4.93;;
6372;SDS011;3219;51.362;7.074;2023-02-27T04:38:40;10.20;;;4.93;;
6372;SDS011;3219;51.362;7.074;2023-02-27T04:41:13;9.82;;;5.07;;
6372;SDS011;3219;51.362;7.074;2023-02-27T04:43:47;10.32;;;5.38;;
6372;SDS011;3219;51.362;7.074;2023-02-27T04:46:15;9.30;;;5.22;;
6372;SDS011;3219;51.362;7.074;2023-02-27T04:48:47;8.82;;;5.30;;
6372;SDS011;3219;51.362;7.074;2023-02-27T04:51:19;8.20;;;5.15;;
6372;SDS011;3219;51.362;7.074;2023-02-27T04:53:51;10.32;;;5.20;;
6372;SDS011;3219;51.362;7.074;2023-02-27T04:56:22;11.40;;;5.68;;
6372;SDS011;3219;51.362;7.074;2023-02-27T04:58:55;9.55;;;4.90;;
6372;SDS011;3219;51.362;7.074;2023-02-27T05:01:28;8.55;;;5.57;;
6372;SDS011;3219;51.362;7.074;2023-02-27T05:04:00;12.45;;;5.10;;
6372;SDS011;3219;51.362;7.074;2023-02-27T05:06:31;9.70;;;5.47;;
6372;SDS011;3219;51.362;7.074;2023-02-27T05:09:05;7.30;;;4.68;;
6372;SDS011;3219;51.362;7.074;2023-02-27T05:11:41;10.15;;;5.78;;
6372;SDS011;3219;51.362;7.074;2023-02-27T05:14:12;11.60;;;4.78;;
6372;SDS011;3219;51.362;7.074;2023-02-27T05:16:44;9.32;;;5.30;;
6372;SDS011;3219;51.362;7.074;2023-02-27T05:19:14;9.32;;;5.53;;
6372;SDS011;3219;51.362;7.074;2023-02-27T05:21:43;11.13;;;5.20;;
6372;SDS011;3219;51.362;7.074;2023-02-27T05:24:19;7.70;;;5.10;;
6372;SDS011;3219;51.362;7.074;2023-02-27T05:27:05;9.63;;;5.60;;
6372;SDS011;3219;51.362;7.074;2023-02-27T05:29:43;6.45;;;4.60;;
6372;SDS011;3219;51.362;7.074;2023-02-27T05:32:17;8.63;;;5.00;;
6372;SDS011;3219;51.362;7.074;2023-02-27T05:34:51;7.28;;;4.93;;
6372;SDS011;3219;51.362;7.074;2023-02-27T05:37:24;9.13;;;5.30;;
6372;SDS011;3219;51.362;7.074;2023-02-27T05:39:55;7.35;;;5.20;;
6372;SDS011;3219;51.362;7.074;2023-02-27T05:42:26;10.70;;;5.50;;
6372;SDS011;3219;51.362;7.074;2023-02-27T05:45:00;9.90;;;5.65;;
6372;SDS011;3219;51.362;7.074;2023-02-27T05:47:31;8.70;;;5.25;;
6372;SDS011;3219;51.362;7.074;2023-02-27T05:50:03;8.52;;;5.35;;
6372;SDS011;3219;51.362;7.074;2023-02-27T05:52:35;6.38;;;4.93;;
6372;SDS011;3219;51.362;7.074;2023-02-27T05:55:03;8.70;;;5.32;;
6372;SDS011;3219;51.362;7.074;2023-02-27T05:57:34;9.32;;;5.65;;
6372;SDS011;3219;51.362;7.074;2023-02-27T06:02:37;9.90;;;5.80;;
6372;SDS011;3219;51.362;7.074;2023-02-27T06:05:05;7.20;;;5.53;;
6372;SDS011;3219;51.362;7.074;2023-02-27T06:07:32;8.60;;;5.55;;
6372;SDS011;3219;51.362;7.074;2023-02-27T06:09:59;10.75;;;5.45;;
6372;SDS011;3219;51.362;7.074;2023-02-27T06:12:26;11.25;;;5.90;;
6372;SDS011;3219;51.362;7.074;2023-02-27T06:14:53;9.68;;;5.28;;
6372;SDS011;3219;51.362;7.074;2023-02-27T06:17:21;9.70;;;6.00;;
6372;SDS011;3219;51.362;7.074;2023-02-27T06:19:48;9.55;;;5.65;;
6372;SDS011;3219;51.362;7.074;2023-02-27T06:22:14;10.20;;;5.65;;
6372;SDS011;3219;51.362;7.074;2023-02-27T06:24:41;7.25;;;5.10;;
6372;SDS011;3219;51.362;7.074;2023-02-27T06:27:08;8.85;;;5.45;;
6372;SDS011;3219;51.362;7.074;2023-02-27T06:29:35;12.95;;;6.47;;
6372;SDS011;3219;51.362;7.074;2023-02-27T06:32:01;11.23;;;5.72;;
6372;SDS011;3219;51.362;7.074;2023-02-27T06:34:29;10.88;;;6.60;;
6372;SDS011;3219;51.362;7.074;2023-02-27T06:36:56;12.60;;;7.57;;
6372;SDS011;3219;51.362;7.074;2023-02-27T06:39:23;12.93;;;7.82;;
6372;SDS011;3219;51.362;7.074;2023-02-27T06:41:50;13.35;;;7.07;;
6372;SDS011;3219;51.362;7.074;2023-02-27T06:44:16;14.32;;;7.05;;
6372;SDS011;3219;51.362;7.074;2023-02-27T06:46:44;12.27;;;6.68;;
6372;SDS011;3219;51.362;7.074;2023-02-27T06:49:10;12.15;;;6.85;;
6372;SDS011;3219;51.362;7.074;2023-02-27T06:51:38;12.70;;;7.20;;
6372;SDS011;3219;51.362;7.074;2023-02-27T06:54:05;11.70;;;6.72;;
6372;SDS011;3219;51.362;7.074;2023-02-27T06:56:32;8.88;;;6.35;;
6372;SDS011;3219;51.362;7.074;2023-02-27T06:58:59;14.38;;;7.00;;
6372;SDS011;3219;51.362;7.074;2023-02-27T07:01:26;12.45;;;7.00;;
6372;SDS011;3219;51.362;7.074;2023-02-27T07:03:52;8.52;;;6.90;;
6372;SDS011;3219;51.362;7.074;2023-02-27T07:06:19;11.05;;;6.45;;
6372;SDS011;3219;51.362;7.074;2023-02-27T07:08:47;8.63;;;6.82;;
6372;SDS011;3219;51.362;7.074;2023-02-27T07:11:14;10.13;;;6.82;;
6372;SDS011;3219;51.362;7.074;2023-02-27T07:13:41;9.27;;;6.05;;
6372;SDS011;3219;51.362;7.074;2023-02-27T07:16:08;9.40;;;6.22;;
6372;SDS011;3219;51.362;7.074;2023-02-27T07:18:34;11.43;;;6.35;;
6372;SDS011;3219;51.362;7.074;2023-02-27T07:21:01;11.43;;;6.45;;
6372;SDS011;3219;51.362;7.074;2023-02-27T07:23:28;10.77;;;7.18;;
6372;SDS011;3219;51.362;7.074;2023-02-27T07:25:56;14.13;;;6.95;;
6372;SDS011;3219;51.362;7.074;2023-02-27T07:28:23;10.20;;;6.50;;
6372;SDS011;3219;51.362;7.074;2023-02-27T07:30:51;8.50;;;6.22;;
6372;SDS011;3219;51.362;7.074;2023-02-27T07:33:19;13.70;;;6.60;;
6372;SDS011;3219;51.362;7.074;2023-02-27T07:35:46;10.50;;;6.53;;
6372;SDS011;3219;51.362;7.074;2023-02-27T07:38:12;10.68;;;6.00;;
6372;SDS011;3219;51.362;7.074;2023-02-27T07:40:39;12.45;;;7.20;;
6372;SDS011;3219;51.362;7.074;2023-02-27T07:43:07;12.25;;;6.70;;
6372;SDS011;3219;51.362;7.074;2023-02-27T07:45:34;12.43;;;6.72;;
6372;SDS011;3219;51.362;7.074;2023-02-27T07:48:01;12.00;;;6.45;;
6372;SDS011;3219;51.362;7.074;2023-02-27T07:50:27;12.27;;;7.05;;
6372;SDS011;3219;51.362;7.074;2023-02-27T07:52:54;10.95;;;6.82;;
6372;SDS011;3219;51.362;7.074;2023-02-27T07:55:21;14.68;;;6.85;;
6372;SDS011;3219;51.362;7.074;2023-02-27T07:57:48;12.80;;;6.63;;
6372;SDS011;3219;51.362;7.074;2023-02-27T08:02:44;8.23;;;6.38;;
6372;SDS011;3219;51.362;7.074;2023-02-27T08:05:11;10.68;;;6.18;;
6372;SDS011;3219;51.362;7.074;2023-02-27T08:07:39;12.15;;;5.97;;
6372;SDS011;3219;51.362;7.074;2023-02-27T08:10:07;13.23;;;5.80;;
6372;SDS011;3219;51.362;7.074;2023-02-27T08:12:34;8.88;;;5.25;;
6372;SDS011;3219;51.362;7.074;2023-02-27T08:15:01;11.18;;;6.50;;
6372;SDS011;3219;51.362;7.074;2023-02-27T08:17:29;9.43;;;5.88;;
6372;SDS011;3219;51.362;7.074;2023-02-27T08:19:56;10.15;;;6.32;;
6372;SDS011;3219;51.362;7.074;2023-02-27T08:22:23;9.77;;;6.38;;
6372;SDS011;3219;51.362;7.074;2023-02-27T08:24:50;10.40;;;6.10;;
6372;SDS011;3219;51.362;7.074;2023-02-27T08:27:16;10.20;;;5.38;;
6372;SDS011;3219;51.362;7.074;2023-02-27T08:29:43;9.48;;;5.50;;
6372;SDS011;3219;51.362;7.074;2023-02-27T08:32:10;8.05;;;4.68;;
6372;SDS011;3219;51.362;7.074;2023-02-27T08:34:38;14.48;;;5.43;;
6372;SDS011;3219;51.362;7.074;2023-02-27T08:37:05;9.93;;;4.80;;
6372;SDS011;3219;51.362;7.074;2023-02-27T08:39:32;8.82;;;4.40;;
6372;SDS011;3219;51.362;7.074;2023-02-27T08:41:59;9.88;;;4.70;;
6372;SDS011;3219;51.362;7.074;2023-02-27T08:44:26;7.43;;;4.40;;
6372;SDS011;3219;51.362;7.074;2023-02-27T08:46:52;7.95;;;5.00;;
6372;SDS011;3219;51.362;7.074;2023-02-27T08:49:19;12.70;;;4.97;;
6372;SDS011;3219;51.362;7.074;2023-02-27T08:51:50;9.88;;;4.63;;
6372;SDS011;3219;51.362;7.074;2023-02-27T08:54:17;8.35;;;4.25;;
6372;SDS011;3219;51.362;7.074;2023-02-27T08:56:44;8.68;;;3.97;;
6372;SDS011;3219;51.362;7.074;2023-02-27T08:59:12;7.10;;;4.22;;
6372;SDS011;3219;51.362;7.074;2023-02-27T09:01:39;6.90;;;4.20;;
6372;SDS011;3219;51.362;7.074;2023-02-27T09:04:06;10.70;;;3.95;;
6372;SDS011;3219;51.362;7.074;2023-02-27T09:06:33;12.43;;;4.40;;
6372;SDS011;3219;51.362;7.074;2023-02-27T09:09:02;9.20;;;4.10;;
6372;SDS011;3219;51.362;7.074;2023-02-27T09:11:30;6.57;;;4.30;;
6372;SDS011;3219;51.362;7.074;2023-02-27T09:13:57;7.53;;;3.85;;
6372;SDS011;3219;51.362;7.074;2023-02-27T09:16:24;7.43;;;4.00;;
6372;SDS011;3219;51.362;7.074;2023-02-27T09:18:50;8.80;;;4.00;;
6372;SDS011;3219;51.362;7.074;2023-02-27T09:21:18;9.27;;;4.00;;
6372;SDS011;3219;51.362;7.074;2023-02-27T09:23:46;10.55;;;4.10;;
6372;SDS011;3219;51.362;7.074;2023-02-27T09:26:14;6.30;;;3.28;;
6372;SDS011;3219;51.362;7.074;2023-02-27T09:28:41;12.13;;;4.65;;
6372;SDS011;3219;51.362;7.074;2023-02-27T09:31:08;5.95;;;3.50;;
6372;SDS011;3219;51.362;7.074;2023-02-27T09:33:36;8.02;;;3.63;;
6372;SDS011;3219;51.362;7.074;2023-02-27T09:36:04;8.68;;;3.45;;
6372;SDS011;3219;51.362;7.074;2023-02-27T09:38:32;9.70;;;3.50;;
6372;SDS011;3219;51.362;7.074;2023-02-27T09:40:59;8.40;;;3.90;;
6372;SDS011;3219;51.362;7.074;2023-02-27T09:43:29;9.90;;;3.83;;
6372;SDS011;3219;51.362;7.074;2023-02-27T09:46:01;10.13;;;3.90;;
6372;SDS011;3219;51.362;7.074;2023-02-27T09:48:30;8.00;;;3.72;;
6372;SDS011;3219;51.362;7.074;2023-02-27T09:51:00;7.03;;;3.70;;
6372;SDS011;3219;51.362;7.074;2023-02-27T09:53:29;7.03;;;3.53;;
6372;SDS011;3219;51.362;7.074;2023-02-27T09:56:00;7.03;;;3.65;;
6372;SDS011;3219;51.362;7.074;2023-02-27T09:58:39;9.43;;;3.80;;
6372;SDS011;3219;51.362;7.074;2023-02-27T10:01:12;9.65;;;4.03;;
6372;SDS011;3219;51.362;7.074;2023-02-27T10:03:48;6.72;;;3.47;;
6372;SDS011;3219;51.362;7.074;2023-02-27T10:06:39;7.53;;;3.17;;
6372;SDS011;3219;51.362;7.074;2023-02-27T10:09:21;9.05;;;3.28;;
6372;SDS011;3219;51.362;7.074;2023-02-27T10:12:05;9.10;;;3.72;;
6372;SDS011;3219;51.362;7.074;2023-02-27T10:14:42;11.70;;;3.38;;
6372;SDS011;3219;51.362;7.074;2023-02-27T10:17:13;8.27;;;2.95;;
6372;SDS011;3219;51.362;7.074;2023-02-27T10:19:44;17.27;;;3.95;;
6372;SDS011;3219;51.362;7.074;2023-02-27T10:22:15;6.93;;;3.38;;
6372;SDS011;3219;51.362;7.074;2023-02-27T10:24:47;8.73;;;2.92;;
6372;SDS011;3219;51.362;7.074;2023-02-27T10:29:47;5.60;;;2.95;;
6372;SDS011;3219;51.362;7.074;2023-02-27T10:32:16;6.22;;;2.83;;
6372;SDS011;3219;51.362;7.074;2023-02-27T10:34:47;12.00;;;3.17;;
6372;SDS011;3219;51.362;7.074;2023-02-27T10:37:17;8.23;;;3.58;;
6372;SDS011;3219;51.362;7.074;2023-02-27T10:39:48;8.95;;;3.50;;
6372;SDS011;3219;51.362;7.074;2023-02-27T10:42:19;7.40;;;3.70;;
6372;SDS011;3219;51.362;7.074;2023-02-27T10:44:48;7.43;;;3.13;;
6372;SDS011;3219;51.362;7.074;2023-02-27T10:47:17;7.25;;;2.60;;
6372;SDS011;3219;51.362;7.074;2023-02-27T10:49:46;8.35;;;3.13;;
6372;SDS011;3219;51.362;7.074;2023-02-27T10:52:14;9.07;;;2.97;;
6372;SDS011;3219;51.362;7.074;2023-02-27T10:54:42;15.48;;;3.85;;
6372;SDS011;3219;51.362;7.074;2023-02-27T10:57:19;7.65;;;2.83;;
6372;SDS011;3219;51.362;7.074;2023-02-27T10:59:53;5.40;;;2.60;;
6372;SDS011;3219;51.362;7.074;2023-02-27T11:02:24;6.70;;;2.83;;
6372;SDS011;3219;51.362;7.074;2023-02-27T11:04:54;7.75;;;2.97;;
6372;SDS011;3219;51.362;7.074;2023-02-27T11:07:27;6.93;;;2.95;;
6372;SDS011;3219;51.362;7.074;2023-02-27T11:09:58;5.47;;;2.58;;
6372;SDS011;3219;51.362;7.074;2023-02-27T11:12:28;9.05;;;2.92;;
6372;SDS011;3219;51.362;7.074;2023-02-27T11:14:58;8.32;;;2.88;;
6372;SDS011;3219;51.362;7.074;2023-02-27T11:17:26;7.45;;;2.83;;
6372;SDS011;3219;51.362;7.074;2023-02-27T11:19:56;6.20;;;2.50;;
6372;SDS011;3219;51.362;7.074;2023-02-27T11:22:25;6.57;;;2.35;;
6372;SDS011;3219;51.362;7.074;2023-02-27T11:25:09;5.95;;;2.55;;
6372;SDS011;3219;51.362;7.074;2023-02-27T11:27:46;8.93;;;3.10;;
6372;SDS011;3219;51.362;7.074;2023-02-27T11:30:22;8.60;;;2.65;;
6372;SDS011;3219;51.362;7.074;2023-02-27T11:32:52;3.13;;;2.38;;
6372;SDS011;3219;51.362;7.074;2023-02-27T11:35:23;6.43;;;2.65;;
6372;SDS011;3219;51.362;7.074;2023-02-27T11:37:52;6.00;;;2.90;;
6372;SDS011;3219;51.362;7.074;2023-02-27T11:40:21;7.20;;;3.00;;
6372;SDS011;3219;51.362;7.074;2023-02-27T11:42:54;7.97;;;2.65;;
6372;SDS011;3219;51.362;7.074;2023-02-27T11:45:25;6.53;;;2.78;;
6372;SDS011;3219;51.362;7.074;2023-02-27T11:47:56;8.18;;;3.17;;
6372;SDS011;3219;51.362;7.074;2023-02-27T11:53:33;7.43;;;3.05;;
6372;SDS011;3219;51.362;7.074;2023-02-27T11:56:12;3.92;;;2.50;;
6372;SDS011;3219;51.362;7.074;2023-02-27T11:58:44;6.27;;;3.03;;
6372;SDS011;3219;51.362;7.074;2023-02-27T12:01:19;6.53;;;2.97;;
6372;SDS011;3219;51.362;7.074;2023-02-27T12:03:53;3.70;;;2.72;;
6372;SDS011;3219;51.362;7.074;2023-02-27T12:06:27;8.45;;;2.70;;
6372;SDS011;3219;51.362;7.074;2023-02-27T12:08:58;6.18;;;2.78;;
6372;SDS011;3219;51.362;7.074;2023-02-27T12:11:30;5.50;;;2.50;;
6372;SDS011;3219;51.362;7.074;2023-02-27T12:14:02;6.65;;;2.90;;
6372;SDS011;3219;51.362;7.074;2023-02-27T12:16:40;6.13;;;2.85;;
6372;SDS011;3219;51.362;7.074;2023-02-27T12:19:11;7.03;;;3.13;;
6372;SDS011;3219;51.362;7.074;2023-02-27T12:21:42;11.48;;;2.97;;
6372;SDS011;3219;51.362;7.074;2023-02-27T12:24:13;4.68;;;3.10;;
6372;SDS011;3219;51.362;7.074;2023-02-27T12:26:45;9.27;;;3.22;;
6372;SDS011;3219;51.362;7.074;2023-02-27T12:29:17;10.27;;;3.00;;
6372;SDS011;3219;51.362;7.074;2023-02-27T12:31:51;7.03;;;3.38;;
6372;SDS011;3219;51.362;7.074;2023-02-27T12:34:24;7.70;;;2.63;;
6372;SDS011;3219;51.362;7.074;2023-02-27T12:36:54;8.05;;;2.85;;
6372;SDS011;3219;51.362;7.074;2023-02-27T12:39:25;4.68;;;2.50;;
6372;SDS011;3219;51.362;7.074;2023-02-27T12:41:59;5.20;;;3.00;;
6372;SDS011;3219;51.362;7.074;2023-02-27T12:48:03;8.52;;;3.03;;
6372;SDS011;3219;51.362;7.074;2023-02-27T12:50:42;4.47;;;2.50;;
6372;SDS011;3219;51.362;7.074;2023-02-27T12:53:22;5.13;;;2.60;;
6372;SDS011;3219;51.362;7.074;2023-02-27T12:56:10;6.15;;;2.50;;
6372;SDS011;3219;51.362;7.074;2023-02-27T12:58:42;7.45;;;2.90;;
6372;SDS011;3219;51.362;7.074;2023-02-27T13:01:18;7.97;;;3.00;;
6372;SDS011;3219;51.362;7.074;2023-02-27T13:03:53;4.50;;;2.45;;
6372;SDS011;3219;51.362;7.074;2023-02-27T13:06:25;6.60;;;2.75;;
6372;SDS011;3219;51.362;7.074;2023-02-27T13:09:03;5.75;;;2.63;;
6372;SDS011;3219;51.362;7.074;2023-02-27T13:11:54;5.15;;;2.53;;
6372;SDS011;3219;51.362;7.074;2023-02-27T13:14:28;8.15;;;3.08;;
6372;SDS011;3219;51.362;7.074;2023-02-27T13:17:08;4.45;;;2.20;;
6372;SDS011;3219;51.362;7.074;2023-02-27T13:19:43;7.10;;;2.83;;
6372;SDS011;3219;51.362;7.074;2023-02-27T13:22:18;7.95;;;2.67;;
6372;SDS011;3219;51.362;7.074;2023-02-27T13:24:52;6.28;;;2.30;;
6372;SDS011;3219;51.362;7.074;2023-02-27T13:27:23;7.85;;;2.05;;
6372;SDS011;3219;51.362;7.074;2023-02-27T13:29:55;4.28;;;2.17;;
6372;SDS011;3219;51.362;7.074;2023-02-27T13:32:33;7.53;;;2.83;;
6372;SDS011;3219;51.362;7.074;2023-02-27T13:35:11;3.63;;;2.28;;
6372;SDS011;3219;51.362;7.074;2023-02-27T13:37:49;7.93;;;2.50;;
6372;SDS011;3219;51.362;7.074;2023-02-27T13:40:31;5.15;;;2.63;;
6372;SDS011;3219;51.362;7.074;2023-02-27T13:43:01;9.18;;;2.40;;
6372;SDS011;3219;51.362;7.074;2023-02-27T13:48:43;5.55;;;2.67;;
6372;SDS011;3219;51.362;7.074;2023-02-27T13:54:23;5.35;;;2.80;;
6372;SDS011;3219;51.362;7.074;2023-02-27T13:59:49;5.43;;;2.53;;
6372;SDS011;3219;51.362;7.074;2023-02-27T14:02:24;7.57;;;3.00;;
6372;SDS011;3219;51.362;7.074;2023-02-27T14:04:56;4.90;;;2.65;;
6372;SDS011;3219;51.362;7.074;2023-02-27T14:07:25;4.85;;;2.28;;
6372;SDS011;3219;51.362;7.074;2023-02-27T14:10:00;6.90;;;2.80;;
6372;SDS011;3219;51.362;7.074;2023-02-27T14:12:30;6.15;;;2.50;;
6372;SDS011;3219;51.362;7.074;2023-02-27T14:14:58;3.92;;;2.28;;
6372;SDS011;3219;51.362;7.074;2023-02-27T14:17:39;4.28;;;2.25;;
6372;SDS011;3219;51.362;7.074;2023-02-27T14:25:45;6.38;;;2.72;;
6372;SDS011;3219;51.362;7.074;2023-02-27T14:28:19;5.60;;;2.78;;
6372;SDS011;3219;51.362;7.074;2023-02-27T14:30:51;8.07;;;3.15;;
6372;SDS011;3219;51.362;7.074;2023-02-27T14:33:22;6.45;;;3.30;;
6372;SDS011;3219;51.362;7.074;2023-02-27T14:35:58;6.93;;;3.45;;
6372;SDS011;3219;51.362;7.074;2023-02-27T14:38:28;4.57;;;2.97;;
6372;SDS011;3219;51.362;7.074;2023-02-27T14:43:43;6.07;;;3.42;;
6372;SDS011;3219;51.362;7.074;2023-02-27T14:46:21;5.40;;;3.55;;
6372;SDS011;3219;51.362;7.074;2023-02-27T14:48:54;5.95;;;3.03;;
6372;SDS011;3219;51.362;7.074;2023-02-27T14:51:22;6.43;;;3.00;;
6372;SDS011;3219;51.362;7.074;2023-02-27T14:54:00;5.40;;;3.30;;
6372;SDS011;3219;51.362;7.074;2023-02-27T14:56:29;6.28;;;2.78;;
6372;SDS011;3219;51.362;7.074;2023-02-27T14:58:56;4.28;;;2.65;;
6372;SDS011;3219;51.362;7.074;2023-02-27T15:01:24;5.88;;;2.90;;
6372;SDS011;3219;51.362;7.074;2023-02-27T15:03:54;4.65;;;3.22;;
6372;SDS011;3219;51.362;7.074;2023-02-27T15:06:25;8.18;;;3.00;;
6372;SDS011;3219;51.362;7.074;2023-02-27T15:08:55;5.25;;;3.22;;
6372;SDS011;3219;51.362;7.074;2023-02-27T15:11:23;8.63;;;3.38;;
6372;SDS011;3219;51.362;7.074;2023-02-27T15:13:53;7.47;;;3.25;;
6372;SDS011;3219;51.362;7.074;2023-02-27T15:16:34;4.30;;;2.70;;
6372;SDS011;3219;51.362;7.074;2023-02-27T15:19:05;4.18;;;2.70;;
6372;SDS011;3219;51.362;7.074;2023-02-27T15:21:39;8.07;;;3.05;;
6372;SDS011;3219;51.362;7.074;2023-02-27T15:24:16;5.93;;;3.58;;
6372;SDS011;3219;51.362;7.074;2023-02-27T15:26:52;5.53;;;2.88;;
6372;SDS011;3219;51.362;7.074;2023-02-27T15:29:21;4.57;;;3.28;;
6372;SDS011;3219;51.362;7.074;2023-02-27T15:31:50;7.38;;;3.10;;
6372;SDS011;3219;51.362;7.074;2023-02-27T15:34:18;9.45;;;3.60;;
6372;SDS011;3219;51.362;7.074;2023-02-27T15:36:45;3.92;;;2.75;;
6372;SDS011;3219;51.362;7.074;2023-02-27T15:39:15;4.82;;;2.58;;
6372;SDS011;3219;51.362;7.074;2023-02-27T15:41:43;5.97;;;3.38;;
6372;SDS011;3219;51.362;7.074;2023-02-27T15:44:14;8.13;;;2.92;;
6372;SDS011;3219;51.362;7.074;2023-02-27T15:46:43;9.73;;;3.40;;
6372;SDS011;3219;51.362;7.074;2023-02-27T15:49:15;6.22;;;2.90;;
6372;SDS011;3219;51.362;7.074;2023-02-27T15:54:14;5.90;;;2.72;;
6372;SDS011;3219;51.362;7.074;2023-02-27T15:56:40;4.93;;;2.88;;
6372;SDS011;3219;51.362;7.074;2023-02-27T15:59:08;4.05;;;2.63;;
6372;SDS011;3219;51.362;7.074;2023-02-27T16:01:41;7.15;;;2.95;;
6372;SDS011;3219;51.362;7.074;2023-02-27T16:04:14;5.72;;;2.58;;
6372;SDS011;3219;51.362;7.074;2023-02-27T16:06:46;4.35;;;2.78;;
6372;SDS011;3219;51.362;7.074;2023-02-27T16:09:18;4.45;;;2.50;;
6372;SDS011;3219;51.362;7.074;2023-02-27T16:11:47;6.75;;;3.00;;
6372;SDS011;3219;51.362;7.074;2023-02-27T16:19:49;4.35;;;2.42;;
6372;SDS011;3219;51.362;7.074;2023-02-27T16:22:17;6.68;;;2.85;;
6372;SDS011;3219;51.362;7.074;2023-02-27T16:24:46;5.10;;;2.67;;
6372;SDS011;3219;51.362;7.074;2023-02-27T16:27:14;5.03;;;2.83;;
6372;SDS011;3219;51.362;7.074;2023-02-27T16:29:44;6.93;;;2.30;;